createdAt,value
2017-09-29T00:00:33.062Z,97.80
2017-09-29T00:03:00.579Z,97.80
2017-09-29T00:05:28.106Z,97.90
2017-09-29T00:07:55.610Z,98.10
2017-09-29T00:10:23.508Z,98.40
2017-09-29T00:12:51.018Z,98.40
2017-09-29T00:15:18.527Z,98.40
2017-09-29T00:17:46.053Z,98.50
2017-09-29T00:20:13.963Z,98.40
2017-09-29T00:22:41.466Z,98.40
2017-09-29T00:25:09.786Z,98.40
2017-09-29T00:27:37.289Z,98.40
2017-09-29T00:30:04.771Z,98.40
2017-09-29T00:32:33.541Z,98.50
2017-09-29T00:35:01.418Z,98.40
2017-09-29T00:37:29.317Z,98.50
2017-09-29T00:39:56.814Z,98.50
2017-09-29T00:42:24.306Z,98.60
2017-09-29T00:44:52.182Z,98.40
2017-09-29T00:47:19.682Z,98.40
2017-09-29T00:49:48.134Z,98.40
2017-09-29T00:52:15.637Z,98.40
2017-09-29T00:54:43.117Z,98.30
2017-09-29T00:57:11.033Z,98.20
2017-09-29T00:59:38.518Z,98.20
2017-09-29T01:02:06.022Z,98.20
2017-09-29T01:04:33.530Z,98.10
2017-09-29T01:07:01.037Z,98.00
2017-09-29T01:09:28.546Z,97.50
2017-09-29T01:11:56.030Z,97.40
2017-09-29T01:14:23.918Z,98.10
2017-09-29T01:16:51.425Z,98.10
2017-09-29T01:19:18.905Z,97.90
2017-09-29T01:21:46.822Z,97.50
2017-09-29T01:24:14.302Z,97.50
2017-09-29T01:26:43.765Z,97.50
2017-09-29T01:29:11.254Z,97.90
2017-09-29T01:31:38.769Z,98.00
2017-09-29T01:34:07.216Z,98.20
2017-09-29T01:36:34.698Z,98.30
2017-09-29T01:39:04.559Z,97.30
2017-09-29T01:41:32.047Z,97.30
2017-09-29T01:44:00.546Z,97.60
2017-09-29T01:46:28.486Z,98.20
2017-09-29T01:48:55.976Z,98.20
2017-09-29T01:51:23.482Z,98.30
2017-09-29T01:53:50.968Z,98.30
2017-09-29T01:56:18.476Z,98.50
2017-09-29T01:58:45.962Z,98.70
2017-09-29T02:01:13.470Z,98.70
2017-09-29T02:03:40.954Z,98.70
2017-09-29T02:06:10.410Z,98.60
2017-09-29T02:08:38.294Z,98.80
2017-09-29T02:11:05.811Z,98.80
2017-09-29T02:13:33.571Z,98.70
2017-09-29T02:16:01.098Z,98.60
2017-09-29T02:18:29.541Z,98.70
2017-09-29T02:20:59.398Z,98.00
2017-09-29T02:23:26.893Z,98.00
2017-09-29T02:25:54.372Z,98.10
2017-09-29T02:28:22.262Z,98.60
2017-09-29T02:30:49.767Z,98.60
2017-09-29T02:33:17.249Z,98.80
2017-09-29T02:35:47.086Z,98.40
2017-09-29T02:38:14.581Z,98.40
2017-09-29T02:40:42.092Z,98.60
2017-09-29T02:43:09.579Z,98.20
2017-09-29T02:45:37.082Z,97.70
2017-09-29T02:48:04.970Z,98.30
2017-09-29T02:50:32.471Z,98.30
2017-09-29T02:52:59.960Z,98.50
2017-09-29T02:55:27.876Z,98.00
2017-09-29T02:58:01.094Z,98.00
2017-09-29T03:00:29.954Z,98.00
2017-09-29T03:03:02.281Z,98.40
2017-09-29T03:05:36.257Z,98.60
2017-09-29T03:08:03.769Z,98.60
2017-09-29T03:10:31.266Z,98.60
2017-09-29T03:12:58.764Z,98.80
2017-09-29T03:15:26.281Z,98.90
2017-09-29T03:17:53.774Z,99.00
2017-09-29T03:20:21.294Z,98.60
2017-09-29T03:22:48.781Z,98.20
2017-09-29T03:25:16.284Z,98.20
2017-09-29T03:27:43.806Z,97.60
2017-09-29T03:30:11.725Z,97.00
2017-09-29T03:32:40.420Z,97.00
2017-09-29T03:35:07.922Z,97.20
2017-09-29T03:37:35.438Z,97.60
2017-09-29T03:40:02.944Z,98.10
2017-09-29T03:42:30.429Z,98.30
2017-09-29T03:44:57.938Z,98.50
2017-09-29T03:47:25.841Z,98.80
2017-09-29T03:49:55.234Z,98.80
2017-09-29T03:52:27.219Z,98.90
2017-09-29T03:54:57.458Z,99.00
2017-09-29T03:57:32.274Z,99.00
2017-09-29T03:59:59.775Z,98.70
2017-09-29T04:02:27.692Z,98.70
2017-09-29T04:04:55.206Z,98.70
2017-09-29T04:07:24.601Z,98.70
2017-09-29T04:09:52.103Z,98.70
2017-09-29T04:12:21.106Z,98.60
2017-09-29T04:14:48.609Z,98.80
2017-09-29T04:17:16.097Z,98.90
2017-09-29T04:19:43.602Z,98.50
2017-09-29T04:22:11.078Z,97.80
2017-09-29T04:24:38.594Z,97.70
2017-09-29T04:27:06.081Z,98.10
2017-09-29T04:29:34.506Z,98.40
2017-09-29T04:32:01.997Z,97.80
2017-09-29T04:34:29.494Z,97.70
2017-09-29T04:36:57.401Z,97.60
2017-09-29T04:39:25.889Z,97.60
2017-09-29T04:41:53.374Z,98.20
2017-09-29T04:44:20.878Z,98.70
2017-09-29T04:46:49.983Z,98.80
2017-09-29T04:49:17.865Z,99.20
2017-09-29T04:51:45.362Z,99.20
2017-09-29T04:54:12.865Z,99.20
2017-09-29T04:56:40.388Z,98.70
2017-09-29T04:59:08.286Z,97.50
2017-09-29T05:01:35.771Z,97.50
2017-09-29T05:04:03.265Z,97.60
2017-09-29T05:06:31.148Z,97.80
2017-09-29T05:08:59.060Z,98.30
2017-09-29T05:11:26.575Z,98.30
2017-09-29T05:13:54.459Z,99.00
2017-09-29T05:16:21.960Z,99.00
2017-09-29T05:18:49.467Z,99.00
2017-09-29T05:21:16.962Z,99.20
2017-09-29T05:23:44.470Z,99.30
2017-09-29T05:26:14.313Z,98.80
2017-09-29T05:28:41.806Z,98.80
2017-09-29T05:31:09.284Z,99.00
2017-09-29T05:33:38.295Z,99.30
2017-09-29T05:36:07.094Z,99.30
2017-09-29T05:38:34.602Z,99.50
2017-09-29T05:41:02.102Z,99.50
2017-09-29T05:43:30.552Z,99.50
2017-09-29T05:45:58.050Z,99.50
2017-09-29T05:48:25.611Z,99.40
2017-09-29T05:50:53.089Z,99.50
2017-09-29T05:53:20.566Z,99.40
2017-09-29T05:55:48.082Z,99.50
2017-09-29T05:58:15.558Z,99.70
2017-09-29T06:00:43.059Z,99.60
2017-09-29T06:03:11.911Z,98.50
2017-09-29T06:05:39.423Z,98.50
2017-09-29T06:08:07.311Z,97.40
2017-09-29T06:10:34.813Z,97.40
2017-09-29T06:13:02.301Z,97.10
2017-09-29T06:15:30.187Z,97.80
2017-09-29T06:17:57.695Z,97.80
2017-09-29T06:20:25.194Z,98.30
2017-09-29T06:22:52.713Z,98.60
2017-09-29T06:25:22.174Z,98.90
2017-09-29T06:27:49.694Z,98.80
2017-09-29T06:30:17.592Z,98.40
2017-09-29T06:32:45.069Z,98.40
2017-09-29T06:35:12.579Z,98.90
2017-09-29T06:37:40.454Z,98.70
2017-09-29T06:40:07.961Z,98.70
2017-09-29T06:42:36.172Z,98.40
2017-09-29T06:45:04.067Z,97.70
2017-09-29T06:47:31.586Z,97.70
2017-09-29T06:49:59.086Z,97.80
2017-09-29T06:52:26.590Z,97.70
2017-09-29T06:54:54.085Z,97.60
2017-09-29T06:57:21.625Z,97.50
2017-09-29T06:59:49.498Z,97.80
2017-09-29T07:02:17.002Z,97.80
2017-09-29T07:04:45.398Z,97.60
2017-09-29T07:07:12.881Z,97.10
2017-09-29T07:09:41.499Z,96.80
2017-09-29T07:12:10.955Z,96.90
2017-09-29T07:14:38.990Z,96.90
2017-09-29T07:17:07.420Z,96.60
2017-09-29T07:19:35.322Z,96.20
2017-09-29T07:22:02.805Z,96.20
2017-09-29T07:24:36.501Z,96.20
2017-09-29T07:27:08.743Z,96.20
2017-09-29T07:29:39.247Z,96.40
2017-09-29T07:32:09.507Z,96.30
2017-09-29T07:34:37.010Z,96.20
2017-09-29T07:37:04.499Z,96.10
2017-09-29T07:39:33.153Z,96.20
2017-09-29T07:42:01.050Z,95.80
2017-09-29T07:44:28.594Z,95.80
2017-09-29T07:46:56.474Z,96.00
2017-09-29T07:49:23.981Z,96.00
2017-09-29T07:51:51.481Z,96.00
2017-09-29T07:54:25.785Z,95.60
2017-09-29T07:56:53.727Z,95.20
2017-09-29T07:59:21.213Z,95.20
2017-09-29T08:01:49.103Z,95.10
2017-09-29T08:04:16.606Z,95.10
2017-09-29T08:06:44.166Z,95.00
2017-09-29T08:09:11.674Z,95.10
2017-09-29T08:11:39.167Z,95.60
2017-09-29T08:14:06.671Z,95.10
2017-09-29T08:16:34.542Z,95.00
2017-09-29T08:19:03.003Z,95.00
2017-09-29T08:21:31.832Z,94.60
2017-09-29T08:23:59.335Z,94.60
2017-09-29T08:26:26.844Z,94.10
2017-09-29T08:28:54.342Z,95.00
2017-09-29T08:31:22.741Z,94.60
2017-09-29T08:33:50.642Z,95.00
2017-09-29T08:36:18.154Z,95.00
2017-09-29T08:38:45.658Z,93.50
2017-09-29T08:41:13.143Z,93.40
2017-09-29T08:43:40.652Z,93.10
2017-09-29T08:46:08.530Z,92.90
2017-09-29T08:48:37.061Z,92.90
2017-09-29T08:51:04.554Z,92.30
2017-09-29T08:53:32.466Z,92.80
2017-09-29T08:55:59.942Z,92.80
2017-09-29T08:58:28.379Z,91.30
2017-09-29T09:00:55.875Z,91.60
2017-09-29T09:03:23.370Z,92.20
2017-09-29T09:05:51.242Z,92.30
2017-09-29T09:08:19.129Z,92.20
2017-09-29T09:10:46.651Z,92.20
2017-09-29T09:13:14.550Z,91.40
2017-09-29T09:15:42.060Z,91.40
2017-09-29T09:18:09.558Z,90.90
2017-09-29T09:20:37.040Z,91.30
2017-09-29T09:23:04.550Z,90.40
2017-09-29T09:25:32.443Z,90.50
2017-09-29T09:28:00.869Z,90.50
2017-09-29T09:30:28.386Z,89.50
2017-09-29T09:32:55.894Z,89.50
2017-09-29T09:35:24.290Z,89.20
2017-09-29T09:37:52.166Z,89.40
2017-09-29T09:40:20.062Z,89.10
2017-09-29T09:42:48.486Z,89.10
2017-09-29T09:45:16.005Z,89.50
2017-09-29T09:47:43.483Z,89.70
2017-09-29T09:50:10.978Z,89.00
2017-09-29T09:52:38.859Z,88.50
2017-09-29T09:55:06.371Z,88.50
2017-09-29T09:57:34.827Z,88.90
2017-09-29T10:00:04.331Z,89.10
2017-09-29T10:02:31.914Z,89.10
2017-09-29T10:04:59.446Z,89.70
2017-09-29T10:07:26.939Z,89.20
2017-09-29T10:09:54.554Z,88.90
2017-09-29T10:12:22.054Z,89.20
2017-09-29T10:14:52.462Z,89.20
2017-09-29T10:17:19.947Z,89.50
2017-09-29T10:19:47.855Z,88.00
2017-09-29T10:22:15.352Z,88.00
2017-09-29T10:24:42.878Z,87.40
2017-09-29T10:27:10.403Z,86.90
2017-09-29T10:29:38.287Z,86.50
2017-09-29T10:32:07.782Z,86.50
2017-09-29T10:34:35.275Z,86.70
2017-09-29T10:37:02.790Z,86.70
2017-09-29T10:39:30.701Z,86.20
2017-09-29T10:42:00.179Z,86.20
2017-09-29T10:44:27.699Z,86.10
2017-09-29T10:46:55.178Z,85.50
2017-09-29T10:49:23.098Z,85.90
2017-09-29T10:51:51.518Z,85.90
2017-09-29T10:54:19.439Z,85.80
2017-09-29T10:56:46.942Z,85.80
2017-09-29T10:59:15.781Z,85.80
2017-09-29T11:01:45.250Z,85.80
2017-09-29T11:04:12.735Z,85.80
2017-09-29T11:06:40.230Z,85.00
2017-09-29T11:09:07.736Z,84.70
2017-09-29T11:11:35.233Z,84.20
2017-09-29T11:14:02.725Z,85.00
2017-09-29T11:16:30.623Z,85.10
2017-09-29T11:18:58.158Z,85.10
2017-09-29T11:21:25.676Z,85.00
2017-09-29T11:23:55.130Z,84.00
2017-09-29T11:26:22.637Z,84.10
2017-09-29T11:28:50.163Z,84.00
2017-09-29T11:31:17.645Z,84.00
2017-09-29T11:33:46.106Z,83.70
2017-09-29T11:36:13.603Z,83.90
2017-09-29T11:38:41.917Z,83.80
2017-09-29T11:41:09.417Z,83.50
2017-09-29T11:43:36.906Z,84.00
2017-09-29T11:46:04.825Z,84.00
2017-09-29T11:48:32.307Z,84.00
2017-09-29T11:50:59.821Z,83.90
2017-09-29T11:53:27.362Z,83.50
2017-09-29T11:55:54.870Z,82.50
2017-09-29T11:58:22.358Z,82.50
2017-09-29T12:00:50.256Z,82.80
2017-09-29T12:03:19.726Z,82.90
2017-09-29T12:05:47.594Z,82.80
2017-09-29T12:08:15.493Z,83.30
2017-09-29T12:10:42.979Z,83.30
2017-09-29T12:13:10.484Z,82.40
2017-09-29T12:15:38.358Z,82.10
2017-09-29T12:18:06.843Z,82.20
2017-09-29T12:20:34.362Z,81.20
2017-09-29T12:23:02.786Z,81.50
2017-09-29T12:25:30.298Z,82.80
2017-09-29T12:27:57.773Z,80.90
2017-09-29T12:30:25.683Z,81.70
2017-09-29T12:32:54.106Z,81.70
2017-09-29T12:35:21.611Z,82.10
2017-09-29T12:37:49.102Z,83.10
2017-09-29T12:40:16.602Z,82.10
2017-09-29T12:42:44.091Z,82.40
2017-09-29T12:47:38.657Z,83.20
2017-09-29T12:50:08.499Z,82.20
2017-09-29T12:52:35.985Z,82.20
2017-09-29T12:55:03.476Z,82.20
2017-09-29T12:57:31.372Z,83.40
2017-09-29T13:00:00.846Z,83.50
2017-09-29T13:02:29.683Z,81.40
2017-09-29T13:04:57.204Z,81.40
2017-09-29T13:07:25.099Z,81.80
2017-09-29T13:09:52.597Z,81.80
2017-09-29T13:12:20.086Z,82.10
2017-09-29T13:14:48.571Z,81.40
2017-09-29T13:17:18.010Z,81.40
2017-09-29T13:19:45.750Z,81.40
2017-09-29T13:22:14.126Z,81.00
2017-09-29T13:24:41.678Z,81.20
2017-09-29T13:27:09.364Z,81.50
2017-09-29T13:29:37.245Z,82.30
2017-09-29T13:32:04.861Z,83.10
2017-09-29T13:34:33.588Z,81.60
2017-09-29T13:37:01.118Z,81.60
2017-09-29T13:39:28.663Z,80.60
2017-09-29T13:41:58.401Z,81.30
2017-09-29T13:44:26.117Z,81.10
2017-09-29T13:46:54.048Z,82.60
2017-09-29T13:49:21.571Z,82.60
2017-09-29T13:51:49.182Z,81.50
2017-09-29T13:54:16.772Z,82.70
2017-09-29T13:56:45.880Z,80.50
2017-09-29T13:59:13.546Z,80.50
2017-09-29T14:01:41.136Z,81.20
2017-09-29T14:04:08.987Z,80.90
2017-09-29T14:06:36.665Z,80.40
2017-09-29T14:09:04.324Z,79.90
2017-09-29T14:11:32.566Z,79.70
2017-09-29T14:14:01.074Z,80.10
2017-09-29T14:16:30.390Z,81.30
2017-09-29T14:18:59.938Z,79.40
2017-09-29T14:21:28.442Z,80.30
2017-09-29T14:23:55.985Z,81.00
2017-09-29T14:26:23.516Z,81.30
2017-09-29T14:28:51.136Z,80.80
2017-09-29T14:31:18.832Z,80.60
2017-09-29T14:33:46.429Z,79.60
2017-09-29T14:36:14.037Z,79.00
2017-09-29T14:38:41.587Z,79.40
2017-09-29T14:41:09.130Z,78.30
2017-09-29T14:43:36.808Z,78.10
2017-09-29T14:46:04.361Z,78.70
2017-09-29T14:48:31.909Z,79.70
2017-09-29T14:50:59.480Z,80.20
2017-09-29T14:53:27.929Z,80.20
2017-09-29T14:55:55.510Z,80.20
2017-09-29T14:58:23.015Z,80.20
2017-09-29T15:00:50.549Z,80.40
2017-09-29T15:03:18.046Z,80.50
2017-09-29T15:05:45.538Z,80.60
2017-09-29T15:08:15.014Z,80.50
2017-09-29T15:10:42.484Z,80.60
2017-09-29T15:13:10.001Z,80.40
2017-09-29T15:15:37.474Z,80.80
2017-09-29T15:18:05.361Z,80.40
2017-09-29T15:20:32.881Z,80.40
2017-09-29T15:23:00.358Z,80.90
2017-09-29T15:25:28.281Z,81.00
2017-09-29T15:27:55.760Z,81.00
2017-09-29T15:30:25.219Z,80.80
2017-09-29T15:32:52.726Z,80.40
2017-09-29T15:35:20.602Z,80.50
2017-09-29T15:37:48.502Z,80.40
2017-09-29T15:40:15.997Z,80.40
2017-09-29T15:42:43.490Z,82.00
2017-09-29T15:45:11.374Z,80.70
2017-09-29T15:47:40.865Z,80.70
2017-09-29T15:50:08.342Z,81.40
2017-09-29T15:52:37.783Z,82.40
2017-09-29T15:55:06.391Z,83.20
2017-09-29T15:57:33.919Z,83.50
2017-09-29T16:00:01.444Z,83.60
2017-09-29T16:02:28.916Z,84.40
2017-09-29T16:04:56.441Z,84.70
2017-09-29T16:07:24.720Z,84.60
2017-09-29T16:09:52.213Z,84.80
2017-09-29T16:12:19.698Z,84.90
2017-09-29T16:14:47.972Z,84.90
2017-09-29T16:17:15.454Z,85.70
2017-09-29T16:19:42.935Z,86.20
2017-09-29T16:22:10.442Z,86.00
2017-09-29T16:24:38.717Z,86.70
2017-09-29T16:27:07.188Z,87.20
2017-09-29T16:29:34.770Z,87.20
2017-09-29T16:32:02.665Z,87.00
2017-09-29T16:34:30.162Z,87.00
2017-09-29T16:36:57.653Z,86.80
2017-09-29T16:39:26.389Z,87.50
2017-09-29T16:41:53.861Z,87.50
2017-09-29T16:44:21.358Z,87.70
2017-09-29T16:46:49.229Z,88.20
2017-09-29T16:49:17.130Z,88.40
2017-09-29T16:51:45.567Z,88.40
2017-09-29T16:54:13.471Z,88.50
2017-09-29T16:56:41.013Z,88.50
2017-09-29T16:59:08.514Z,88.50
2017-09-29T17:01:37.667Z,87.90
2017-09-29T17:04:05.191Z,86.90
2017-09-29T17:06:32.710Z,87.70
2017-09-29T17:09:00.208Z,87.50
2017-09-29T17:11:30.479Z,88.00
2017-09-29T17:13:59.966Z,88.00
2017-09-29T17:16:27.447Z,88.70
2017-09-29T17:18:54.966Z,88.80
2017-09-29T17:21:22.849Z,89.20
2017-09-29T17:23:51.673Z,89.10
2017-09-29T17:26:19.693Z,89.40
2017-09-29T17:28:48.290Z,89.90
2017-09-29T17:31:15.802Z,89.90
2017-09-29T17:33:43.306Z,89.90
2017-09-29T17:36:10.796Z,90.00
2017-09-29T17:38:38.294Z,90.30
2017-09-29T17:41:06.172Z,90.80
2017-09-29T17:43:35.170Z,90.90
2017-09-29T17:46:02.663Z,91.00
2017-09-29T17:48:30.151Z,91.00
2017-09-29T17:50:57.637Z,91.20
2017-09-29T17:53:26.098Z,91.20
2017-09-29T17:55:58.047Z,91.20
2017-09-29T17:58:28.458Z,91.40
2017-09-29T18:00:56.075Z,91.70
2017-09-29T18:03:23.579Z,92.20
2017-09-29T18:05:51.783Z,92.30
2017-09-29T18:08:22.365Z,92.30
2017-09-29T18:10:51.728Z,92.30
2017-09-29T18:13:21.081Z,92.20
2017-09-29T18:15:48.575Z,92.60
2017-09-29T18:18:16.502Z,92.90
2017-09-29T18:20:43.993Z,92.90
2017-09-29T18:23:13.520Z,92.80
2017-09-29T18:28:47.837Z,92.70
2017-09-29T18:31:16.385Z,92.90
2017-09-29T18:33:44.909Z,92.90
2017-09-29T18:36:18.692Z,92.90
2017-09-29T19:14:23.339Z,94.90
2017-09-29T19:16:54.542Z,94.90
2017-09-29T19:19:24.673Z,95.00
2017-09-29T19:21:52.388Z,94.90
2017-09-29T19:24:20.109Z,94.90
2017-09-29T19:26:48.498Z,95.10
2017-09-29T19:29:16.111Z,95.20
2017-09-29T19:31:58.471Z,95.20
2017-09-29T19:34:29.316Z,95.30
2017-09-29T19:41:32.507Z,95.40
2017-09-29T19:44:00.131Z,95.40
2017-09-29T19:46:35.079Z,95.20
2017-09-29T19:49:04.730Z,95.30
2017-09-29T19:51:50.541Z,95.50
2017-09-29T19:54:23.480Z,95.50
2017-09-29T19:56:58.303Z,95.40
2017-09-29T19:59:31.540Z,95.80
2017-09-29T20:01:59.263Z,95.80
2017-09-29T20:04:26.845Z,95.70
2017-09-29T20:06:54.444Z,95.70
2017-09-29T20:09:23.453Z,95.40
2017-09-29T20:11:51.066Z,95.40
2017-09-29T20:14:19.584Z,95.40
2017-09-29T20:16:47.134Z,95.60
2017-09-29T20:19:14.729Z,95.60
2017-09-29T20:21:43.317Z,95.60
2017-09-29T20:24:11.330Z,95.60
2017-09-29T20:26:40.502Z,95.70
2017-09-29T20:29:08.248Z,95.70
2017-09-29T20:31:35.910Z,95.40
2017-09-29T20:34:03.541Z,95.50
2017-09-29T20:36:31.118Z,95.40
2017-09-29T20:38:59.505Z,95.30
2017-09-29T20:41:27.987Z,95.20
2017-09-29T20:43:55.644Z,95.50
2017-09-29T20:46:26.817Z,95.50
2017-09-29T20:48:54.675Z,95.70
2017-09-29T20:51:22.231Z,96.00
2017-09-29T20:53:51.105Z,96.50
2017-09-29T20:56:19.803Z,96.50
2017-09-29T20:58:47.372Z,96.60
2017-09-29T21:01:15.749Z,96.70
2017-09-29T21:03:43.388Z,96.50
2017-09-29T21:06:11.369Z,96.50
2017-09-29T21:08:39.661Z,96.50
2017-09-29T21:11:07.301Z,96.60
2017-09-29T21:13:34.916Z,96.60
2017-09-29T21:16:02.750Z,96.50
2017-09-29T21:18:30.691Z,96.50
2017-09-29T21:20:58.680Z,96.60
2017-09-29T21:23:27.375Z,96.80
2017-09-29T21:25:55.385Z,96.90
2017-09-29T21:28:24.734Z,96.90
2017-09-29T21:30:52.836Z,96.90
2017-09-29T21:33:22.425Z,96.90
2017-09-29T21:35:49.986Z,96.80
2017-09-29T21:38:17.935Z,97.00
2017-09-29T21:40:45.866Z,96.70
2017-09-29T21:43:13.472Z,96.70
2017-09-29T21:45:42.119Z,96.40
2017-09-29T21:48:09.745Z,96.40
2017-09-29T21:50:37.380Z,96.40
2017-09-29T21:53:05.001Z,96.50
2017-09-29T21:55:33.897Z,96.60
2017-09-29T21:58:01.495Z,96.80
2017-09-29T22:00:29.196Z,97.10
2017-09-29T22:02:56.854Z,97.40
2017-09-29T22:05:24.487Z,97.50
2017-09-29T22:07:54.225Z,97.30
2017-09-29T22:10:22.060Z,97.00
2017-09-29T22:12:49.649Z,96.90
2017-09-29T22:15:18.131Z,96.70
2017-09-29T22:17:45.737Z,97.10
2017-09-29T22:20:14.566Z,97.20
2017-09-29T22:22:42.106Z,97.20
2017-09-29T22:25:11.470Z,97.40
2017-09-29T22:27:39.122Z,97.50
2017-09-29T22:30:06.626Z,97.30
2017-09-29T22:32:34.527Z,97.00
2017-09-29T22:35:02.966Z,97.00
2017-09-29T22:37:30.875Z,97.10
2017-09-29T22:39:59.310Z,97.10
2017-09-29T22:42:27.206Z,97.40
2017-09-29T22:44:54.693Z,97.40
2017-09-29T22:47:22.202Z,97.00
2017-09-29T22:49:50.643Z,97.00
2017-09-29T22:52:18.156Z,97.10
2017-09-29T22:54:45.646Z,97.20
2017-09-29T22:57:13.150Z,97.30
2017-09-29T22:59:41.050Z,97.50
2017-09-29T23:02:08.565Z,97.50
2017-09-29T23:04:36.458Z,97.30
2017-09-29T23:07:04.921Z,97.30
2017-09-29T23:09:32.814Z,96.90
2017-09-29T23:12:00.326Z,96.90
2017-09-29T23:14:27.823Z,96.90
2017-09-29T23:16:55.337Z,97.20
2017-09-29T23:19:22.820Z,97.40
2017-09-29T23:21:50.717Z,97.90
2017-09-29T23:24:18.214Z,97.90
2017-09-29T23:26:45.714Z,97.80
2017-09-29T23:29:13.269Z,97.70
2017-09-29T23:31:40.778Z,97.70
2017-09-29T23:34:08.266Z,97.50
2017-09-29T23:36:38.110Z,97.40
2017-09-29T23:39:05.598Z,97.40
2017-09-29T23:41:35.063Z,97.40
2017-09-29T23:44:02.554Z,97.40
2017-09-29T23:46:30.058Z,97.40
2017-09-29T23:48:57.938Z,97.40
2017-09-29T23:51:25.457Z,97.40
2017-09-29T23:53:52.944Z,97.50
2017-09-29T23:56:20.874Z,97.70
2017-09-29T23:58:48.376Z,97.70
